TRI - Tri Cities

Pirep is a free, collaborative database of all public and private airports located within the United States. All pilots are welcome to contribute, edit, and improve any airport they have local knowledge about, no registration required.
Uploaded photos will be licensed under a CC BY-SA 4.0 license. Please only upload photos you have the rights to use.
Tags
Public
METAR / TAF
Flying Clubs
Edit Tags
Food
Camping
Lodging
Car Rental
Bicycles
Swimming
Golfing
Fishing
Hot Springs
Museum
Airpark
Upcoming Events
No upcoming events. Is anything happening here soon?
*
*
*

Where exactly on/near the airport is this event taking place?

Is there a webpage with more information for this event?

Who should be contacted for more information?

What is this event all about?

Repeat every
Description
Transient Parking
Fuel Location
Landing & Tie-down Fees
Crew Car Availability
Flying Clubs
Last updated: 2024-02-25 01:14:33 EST
WiFi Access
Airport Statistics
Location: Bristol/Johnson/Kingsport, TN
Elevation: 1,518ft
Sectional: Cincinnati
Activation date: Dec 1937
Fuel: 100LL, A (prices)
Runway 05/23: 8,000ft
Runway 09/27: 4,442ft
Access: Open to the public
Current Weather — VFR
  • Weather data is strictly informational and not for flight planning purposes.
  • METAR
    2024-05-24 19:53:00 EDT
    Ceiling Wind Temperature Dewpoint Weather Visbility
    25,000ft Calm 75°F 62°F N/A 10SM
    Clouds: Scattered @ 4,000ft, Broken @ 25,000ft
    Raw: KTRI 242353Z 00000KT 10SM SCT040 BKN250 24/17 A2991 RMK AO2 SLP104 T02390172 10278 20239 56012
  • TAF
    2024-05-24 20:00:00 EDT – 2024-05-25 04:00:00 EDT
    Ceiling Wind Weather Visbility
    25,000ft Calm N/A 6SM
    Clouds: Scattered @ 5,000ft, Broken @ 25,000ft
    Raw: KTRI 242339Z 2500/2524 00000KT P6SM SCT050 BKN250 FM250800 00000KT 3SM BR VCFG BKN250 FM251300 VRB03KT P6SM SCT050 BKN100 FM251600 24006KT P6SM VCSH SCT050
  • TAF
    2024-05-25 04:00:00 EDT – 2024-05-25 09:00:00 EDT
    Ceiling Wind Weather Visbility
    25,000ft Calm Mist, fog in vicinity 3SM
    Clouds: Broken @ 25,000ft
    Raw: KTRI 242339Z 2500/2524 00000KT P6SM SCT050 BKN250 FM250800 00000KT 3SM BR VCFG BKN250 FM251300 VRB03KT P6SM SCT050 BKN100 FM251600 24006KT P6SM VCSH SCT050
  • TAF
    2024-05-25 09:00:00 EDT – 2024-05-25 12:00:00 EDT
    Ceiling Wind Weather Visbility
    10,000ft Variable N/A 6SM
    Clouds: Scattered @ 5,000ft, Broken @ 10,000ft
    Raw: KTRI 242339Z 2500/2524 00000KT P6SM SCT050 BKN250 FM250800 00000KT 3SM BR VCFG BKN250 FM251300 VRB03KT P6SM SCT050 BKN100 FM251600 24006KT P6SM VCSH SCT050
  • TAF
    2024-05-25 12:00:00 EDT – 2024-05-25 20:00:00 EDT
    Ceiling Wind Weather Visbility
    Sky clear 240° @ 6kt Showers in vicinity 6SM
    Clouds: Scattered @ 5,000ft
    Raw: KTRI 242339Z 2500/2524 00000KT P6SM SCT050 BKN250 FM250800 00000KT 3SM BR VCFG BKN250 FM251300 VRB03KT P6SM SCT050 BKN100 FM251600 24006KT P6SM VCSH SCT050
Click/tap to add an annotation marker to the map
Airport Webcams
No webcams added yet.
Direct links to live image URLs will be displayed inline on this page. URLs to separate webpages will be linked to.
URL:
Direct links to live image URLs will be displayed inline on this page. URLs to separate webpages will be linked to.
URL:
Remarks
  • For cd if una to ctc on fss freq, ctc atlanta artcc at 770-210-7692.
  • Us customs user fee arpt.
  • Cities of bristol, tn; bristol, va; johnson city & kingsport, tn; counties of washington & sullivan. tri cities airport authority sets policy and has financial authority for the airport.
  • Papi rwy 27 unavbl when twr clsd.
Comments
Leave a comment What was your experience like at this airport?